createdAt,value
2023-05-10T00:01:53.666Z,96299.16
2023-05-10T00:04:20.287Z,96310.56
2023-05-10T00:06:46.800Z,96301.69
2023-05-10T00:09:13.330Z,96306.00
2023-05-10T00:11:39.820Z,96296.59
2023-05-10T00:14:06.300Z,96293.25
2023-05-10T00:16:32.731Z,96322.69
2023-05-10T00:18:59.237Z,96302.81
2023-05-10T00:21:25.752Z,96296.00
2023-05-10T00:23:52.329Z,96312.03
2023-05-10T00:26:18.831Z,96288.03
2023-05-10T00:28:45.277Z,96299.47
2023-05-10T00:31:11.833Z,96297.56
2023-05-10T00:33:38.307Z,96304.25
2023-05-10T00:36:04.999Z,96296.44
2023-05-10T00:38:31.557Z,96316.16
2023-05-10T00:40:58.070Z,96304.88
2023-05-10T00:43:24.498Z,96316.47
2023-05-10T00:45:51.018Z,96299.31
2023-05-10T00:48:17.475Z,96315.81
2023-05-10T00:50:44.539Z,96306.13
2023-05-10T00:53:10.917Z,96306.00
2023-05-10T00:55:37.550Z,96283.91
2023-05-10T00:58:04.207Z,96282.78
2023-05-10T01:00:30.875Z,96316.16
2023-05-10T01:02:57.557Z,96299.16
2023-05-10T01:05:24.201Z,96275.47
2023-05-10T01:07:50.673Z,96302.16
2023-05-10T01:10:17.290Z,96293.44
2023-05-10T01:12:44.433Z,96294.56
2023-05-10T01:15:11.014Z,96302.50
2023-05-10T01:17:38.093Z,96300.88
2023-05-10T01:20:04.765Z,96296.72
2023-05-10T01:22:34.330Z,96299.59
2023-05-10T01:25:03.542Z,96309.97
2023-05-10T01:27:48.201Z,96300.44
2023-05-10T01:30:16.180Z,96323.16
2023-05-10T01:32:54.338Z,96295.47
2023-05-10T01:35:33.105Z,96304.53
2023-05-10T01:38:05.633Z,96314.88
2023-05-10T01:40:35.000Z,96299.44
2023-05-10T01:43:02.647Z,96299.72
2023-05-10T01:45:32.065Z,96293.53
2023-05-10T01:48:06.374Z,96323.91
2023-05-10T01:50:32.988Z,96309.16
2023-05-10T01:52:59.896Z,96318.00
2023-05-10T01:55:27.159Z,96303.84
2023-05-10T01:57:59.635Z,96308.78
2023-05-10T02:00:26.138Z,96314.97
2023-05-10T02:02:52.557Z,96315.75
2023-05-10T02:05:19.047Z,96314.63
2023-05-10T02:07:45.560Z,96299.38
2023-05-10T02:10:12.324Z,96305.28
2023-05-10T02:12:42.054Z,96260.88
2023-05-10T02:15:08.532Z,96325.50
2023-05-10T02:17:35.512Z,96303.03
2023-05-10T02:20:02.184Z,96302.91
2023-05-10T02:22:28.616Z,96309.75
2023-05-10T02:24:55.970Z,96297.03
2023-05-10T02:27:22.678Z,96309.41
2023-05-10T02:29:49.118Z,96309.44
2023-05-10T02:32:15.941Z,96302.09
2023-05-10T02:34:42.387Z,96300.66
2023-05-10T02:37:08.812Z,96311.47
2023-05-10T02:39:35.222Z,96301.97
2023-05-10T02:42:01.634Z,96312.00
2023-05-10T02:44:28.110Z,96310.44
2023-05-10T02:46:54.497Z,96307.22
2023-05-10T02:49:21.029Z,96296.41
2023-05-10T02:51:52.134Z,96311.84
2023-05-10T02:54:22.118Z,96301.53
2023-05-10T02:56:48.811Z,96306.28
2023-05-10T02:59:15.330Z,96297.41
2023-05-10T03:01:41.937Z,96299.78
2023-05-10T03:04:08.492Z,96307.09
2023-05-10T03:06:35.182Z,96308.06
2023-05-10T03:09:02.210Z,96303.16
2023-05-10T03:11:37.648Z,96316.47
2023-05-10T03:14:04.086Z,96292.34
2023-05-10T03:16:31.432Z,96310.94
2023-05-10T03:19:02.191Z,96308.25
2023-05-10T03:21:29.603Z,96296.59
2023-05-10T03:23:59.604Z,96292.66
2023-05-10T03:26:26.730Z,96300.91
2023-05-10T03:28:53.446Z,96294.06
2023-05-10T03:31:20.057Z,96302.66
2023-05-10T03:33:49.108Z,96296.13
2023-05-10T03:36:15.604Z,96292.78
2023-05-10T03:38:42.108Z,96285.19
2023-05-10T03:41:08.645Z,96300.13
2023-05-10T03:43:35.144Z,96316.03
2023-05-10T03:46:04.942Z,96312.03
2023-05-10T03:48:31.628Z,96315.38
2023-05-10T03:50:58.221Z,96312.19
2023-05-10T03:53:24.806Z,96306.94
2023-05-10T03:55:51.225Z,96295.03
2023-05-10T03:58:17.643Z,96301.53
2023-05-10T04:00:44.171Z,96318.19
2023-05-10T04:03:10.891Z,96308.84
2023-05-10T04:05:37.533Z,96321.22
2023-05-10T04:08:04.329Z,96326.16
2023-05-10T04:10:30.765Z,96314.06
2023-05-10T04:12:57.636Z,96311.19
2023-05-10T04:15:24.158Z,96310.69
2023-05-10T04:17:50.666Z,96316.88
2023-05-10T04:20:17.939Z,96303.19
2023-05-10T04:22:44.588Z,96343.41
2023-05-10T04:25:10.980Z,96320.84
2023-05-10T04:27:37.429Z,96327.19
2023-05-10T04:30:04.496Z,96314.44
2023-05-10T04:32:31.064Z,96316.06
2023-05-10T04:34:57.488Z,96324.75
2023-05-10T04:37:23.998Z,96336.06
2023-05-10T04:39:50.551Z,96319.66
2023-05-10T04:42:17.073Z,96301.94
2023-05-10T04:44:43.681Z,96317.88
2023-05-10T04:47:12.510Z,96340.75
2023-05-10T04:49:39.283Z,96341.56
2023-05-10T04:52:07.633Z,96330.91
2023-05-10T04:54:34.000Z,96345.53
2023-05-10T04:57:00.367Z,96342.66
2023-05-10T04:59:27.646Z,96345.50
2023-05-10T05:01:55.618Z,96346.28
2023-05-10T05:04:22.173Z,96374.63
2023-05-10T05:06:48.727Z,96357.59
2023-05-10T05:09:15.188Z,96356.78
2023-05-10T05:11:41.619Z,96362.19
2023-05-10T05:14:08.233Z,96352.97
2023-05-10T05:16:34.809Z,96374.50
2023-05-10T05:19:01.445Z,96357.13
2023-05-10T05:21:28.077Z,96354.47
2023-05-10T05:23:54.522Z,96360.19
2023-05-10T05:26:21.232Z,96351.28
2023-05-10T05:28:47.762Z,96363.03
2023-05-10T05:31:14.190Z,96327.50
2023-05-10T05:33:40.599Z,96340.53
2023-05-10T05:36:07.178Z,96333.19
2023-05-10T05:38:33.743Z,96385.25
2023-05-10T05:41:00.321Z,96377.94
2023-05-10T05:43:26.791Z,96383.00
2023-05-10T05:45:53.566Z,96389.84
2023-05-10T05:48:20.065Z,96386.19
2023-05-10T05:50:46.684Z,96368.03
2023-05-10T05:53:13.141Z,96391.88
2023-05-10T05:55:39.607Z,96353.50
2023-05-10T05:58:06.070Z,96347.78
2023-05-10T06:00:32.972Z,96401.50
2023-05-10T06:02:59.539Z,96390.81
2023-05-10T06:05:26.107Z,96413.41
2023-05-10T06:07:52.534Z,96414.47
2023-05-10T06:10:18.975Z,96422.59
2023-05-10T06:12:45.509Z,96403.97
2023-05-10T06:15:12.471Z,96409.25
2023-05-10T06:17:39.022Z,96411.88
2023-05-10T06:20:05.874Z,96410.88
2023-05-10T06:22:32.422Z,96412.47
2023-05-10T06:24:58.843Z,96416.16
2023-05-10T06:27:25.422Z,96418.53
2023-05-10T06:29:56.518Z,96424.75
2023-05-10T06:32:28.776Z,96433.50
2023-05-10T06:34:55.187Z,96450.53
2023-05-10T06:37:21.601Z,96447.34
2023-05-10T06:39:48.129Z,96452.28
2023-05-10T06:42:14.592Z,96458.16
2023-05-10T06:44:41.057Z,96439.22
2023-05-10T06:47:07.551Z,96454.03
2023-05-10T06:49:34.037Z,96442.25
2023-05-10T06:52:00.518Z,96429.34
2023-05-10T06:54:27.048Z,96448.44
2023-05-10T06:56:53.496Z,96449.22
2023-05-10T06:59:20.034Z,96435.78
2023-05-10T07:01:46.677Z,96453.47
2023-05-10T07:04:13.214Z,96465.13
2023-05-10T07:06:39.744Z,96453.97
2023-05-10T07:09:06.265Z,96458.59
2023-05-10T07:11:32.645Z,96481.34
2023-05-10T07:13:59.076Z,96458.63
2023-05-10T07:16:25.675Z,96453.03
2023-05-10T07:18:52.174Z,96477.38
2023-05-10T07:21:18.586Z,96477.69
2023-05-10T07:23:45.375Z,96476.13
2023-05-10T07:26:11.955Z,96480.88
2023-05-10T07:28:38.551Z,96488.06
2023-05-10T07:31:05.160Z,96489.63
2023-05-10T07:33:31.705Z,96483.41
2023-05-10T07:35:58.321Z,96493.13
2023-05-10T07:38:24.838Z,96476.28
2023-05-10T07:40:51.248Z,96477.84
2023-05-10T07:43:17.966Z,96505.53
2023-05-10T07:45:44.521Z,96475.56
2023-05-10T07:48:11.040Z,96492.34
2023-05-10T07:50:37.443Z,96511.16
2023-05-10T07:53:03.947Z,96502.06
2023-05-10T07:55:30.487Z,96505.91
2023-05-10T07:57:57.381Z,96495.63
2023-05-10T08:00:23.960Z,96523.13
2023-05-10T08:02:50.577Z,96528.75
2023-05-10T08:05:17.434Z,96537.28
2023-05-10T08:07:44.280Z,96528.38
2023-05-10T08:10:10.823Z,96506.97
2023-05-10T08:12:37.777Z,96515.06
2023-05-10T08:15:04.495Z,96514.69
2023-05-10T08:17:31.076Z,96512.28
2023-05-10T08:19:57.528Z,96537.69
2023-05-10T08:22:23.976Z,96533.41
2023-05-10T08:24:50.520Z,96498.94
2023-05-10T08:27:17.012Z,96562.31
2023-05-10T08:29:50.003Z,96534.75
2023-05-10T08:32:17.112Z,96529.75
2023-05-10T08:34:43.642Z,96526.13
2023-05-10T08:37:10.122Z,96533.19
2023-05-10T08:39:36.544Z,96550.50
2023-05-10T08:42:03.319Z,96530.84
2023-05-10T08:44:30.795Z,96535.72
2023-05-10T08:46:57.248Z,96545.34
2023-05-10T08:49:23.671Z,96549.84
2023-05-10T08:51:53.390Z,96541.91
2023-05-10T08:54:19.881Z,96530.34
2023-05-10T08:56:48.569Z,96544.66
2023-05-10T08:59:16.126Z,96524.75
2023-05-10T09:01:43.188Z,96530.34
2023-05-10T09:04:09.722Z,96530.81
2023-05-10T09:06:36.220Z,96524.50
2023-05-10T09:09:02.675Z,96518.47
2023-05-10T09:11:29.268Z,96541.09
2023-05-10T09:13:55.753Z,96551.25
2023-05-10T09:16:22.565Z,96548.47
2023-05-10T09:18:49.351Z,96537.78
2023-05-10T09:21:15.774Z,96549.25
2023-05-10T09:23:48.149Z,96559.81
2023-05-10T09:26:15.020Z,96563.75
2023-05-10T09:28:54.338Z,96544.22
2023-05-10T09:31:20.932Z,96562.44
2023-05-10T09:33:47.700Z,96547.38
2023-05-10T09:36:14.356Z,96541.31
2023-05-10T09:38:50.446Z,96587.78
2023-05-10T09:41:20.331Z,96593.00
2023-05-10T09:43:46.787Z,96572.78
2023-05-10T09:46:13.353Z,96568.28
2023-05-10T09:48:41.765Z,96551.94
2023-05-10T09:51:08.132Z,96557.47
2023-05-10T09:53:34.597Z,96565.69
2023-05-10T09:56:01.035Z,96556.06
2023-05-10T09:58:27.443Z,96547.09
2023-05-10T10:00:53.902Z,96552.97
2023-05-10T10:03:20.887Z,96547.41
2023-05-10T10:05:47.604Z,96544.28
2023-05-10T10:08:14.203Z,96556.38
2023-05-10T10:10:40.698Z,96554.50
2023-05-10T10:13:07.174Z,96544.94
2023-05-10T10:15:33.974Z,96546.19
2023-05-10T10:18:00.472Z,96541.09
2023-05-10T10:20:27.061Z,96544.88
2023-05-10T10:22:54.265Z,96554.06
2023-05-10T10:25:21.038Z,96548.34
2023-05-10T10:27:53.589Z,96522.50
2023-05-10T10:30:26.095Z,96532.19
2023-05-10T10:33:24.366Z,96544.19
2023-05-10T10:35:54.310Z,96538.94
2023-05-10T10:38:20.827Z,96531.03
2023-05-10T10:40:47.677Z,96541.06
2023-05-10T10:43:27.075Z,96528.28
2023-05-10T10:46:12.270Z,96525.56
2023-05-10T10:48:38.851Z,96507.41
2023-05-10T10:51:05.389Z,96514.66
2023-05-10T10:53:31.872Z,96543.03
2023-05-10T10:56:08.402Z,96520.72
2023-05-10T10:58:35.066Z,96521.03
2023-05-10T11:01:17.683Z,96558.75
2023-05-10T11:03:59.602Z,96527.69
2023-05-10T11:06:32.446Z,96531.03
2023-05-10T11:08:58.957Z,96526.16
2023-05-10T11:11:25.634Z,96517.41
2023-05-10T11:13:52.131Z,96516.06
2023-05-10T11:16:21.633Z,96513.72
2023-05-10T11:19:02.019Z,96517.75
2023-05-10T11:21:29.116Z,96537.69
2023-05-10T11:23:59.260Z,96511.78
2023-05-10T11:26:26.151Z,96512.09
2023-05-10T11:28:55.810Z,96503.03
2023-05-10T11:31:22.523Z,96505.31
2023-05-10T11:33:50.462Z,96541.09
2023-05-10T11:36:17.575Z,96536.91
2023-05-10T11:38:44.033Z,96501.56
2023-05-10T11:41:10.646Z,96517.69
2023-05-10T11:43:37.097Z,96512.97
2023-05-10T11:46:03.617Z,96509.94
2023-05-10T11:48:30.560Z,96524.19
2023-05-10T11:50:57.111Z,96546.63
2023-05-10T11:53:24.806Z,96552.25
2023-05-10T11:55:52.437Z,96521.78
2023-05-10T11:58:19.031Z,96539.47
2023-05-10T12:00:45.524Z,96477.63
2023-05-10T12:03:12.277Z,96484.00
2023-05-10T12:05:39.401Z,96526.34
2023-05-10T12:08:16.479Z,96522.97
2023-05-10T12:10:43.067Z,96534.78
2023-05-10T12:13:12.913Z,96539.31
2023-05-10T12:15:39.348Z,96525.69
2023-05-10T12:18:05.807Z,96529.91
2023-05-10T12:20:32.377Z,96537.47
2023-05-10T12:23:00.519Z,96506.66
2023-05-10T12:25:30.463Z,96525.06
2023-05-10T12:27:57.801Z,96512.09
2023-05-10T12:30:28.013Z,96533.22
2023-05-10T12:32:54.652Z,96537.16
2023-05-10T12:35:21.107Z,96527.53
2023-05-10T12:37:47.544Z,96543.94
2023-05-10T12:40:14.040Z,96536.38
2023-05-10T12:42:40.579Z,96522.88
2023-05-10T12:45:07.368Z,96540.25
2023-05-10T12:47:33.865Z,96524.69
2023-05-10T12:50:00.701Z,96533.19
2023-05-10T12:52:27.210Z,96527.88
2023-05-10T12:54:53.702Z,96560.84
2023-05-10T12:57:21.079Z,96528.22
2023-05-10T12:59:47.636Z,96546.56
2023-05-10T13:02:14.343Z,96537.00
2023-05-10T13:04:41.042Z,96541.94
2023-05-10T13:07:07.864Z,96550.63
2023-05-10T13:09:34.289Z,96530.03
2023-05-10T13:12:00.664Z,96535.34
2023-05-10T13:14:27.171Z,96536.63
2023-05-10T13:16:53.678Z,96514.00
2023-05-10T13:19:20.175Z,96534.63
2023-05-10T13:21:46.664Z,96513.94
2023-05-10T13:24:13.180Z,96523.16
2023-05-10T13:26:39.589Z,96511.19
2023-05-10T13:29:06.078Z,96536.28
2023-05-10T13:31:32.559Z,96540.19
2023-05-10T13:33:58.981Z,96521.97
2023-05-10T13:36:25.422Z,96535.13
2023-05-10T13:38:51.825Z,96528.16
2023-05-10T13:41:18.303Z,96541.81
2023-05-10T13:43:44.835Z,96540.09
2023-05-10T13:46:11.265Z,96509.19
2023-05-10T13:48:39.022Z,96517.56
2023-05-10T13:51:05.725Z,96544.94
2023-05-10T13:53:32.255Z,96553.16
2023-05-10T13:55:58.702Z,96524.50
2023-05-10T13:58:25.670Z,96546.16
2023-05-10T14:00:52.109Z,96562.97
2023-05-10T14:03:18.837Z,96596.78
2023-05-10T14:05:45.494Z,96567.25
2023-05-10T14:08:11.971Z,96574.88
2023-05-10T14:10:38.437Z,96572.13
2023-05-10T14:13:04.942Z,96565.06
2023-05-10T14:15:31.413Z,96585.25
2023-05-10T14:17:57.930Z,96575.25
2023-05-10T14:20:24.533Z,96570.38
2023-05-10T14:22:51.028Z,96565.78
2023-05-10T14:25:17.631Z,96573.13
2023-05-10T14:27:44.360Z,96574.19
2023-05-10T14:30:10.986Z,96596.63
2023-05-10T14:32:37.376Z,96588.31
2023-05-10T14:35:04.005Z,96579.56
2023-05-10T14:37:30.512Z,96578.38
2023-05-10T14:39:56.916Z,96594.66
2023-05-10T14:42:23.321Z,96579.34
2023-05-10T14:44:49.806Z,96583.63
2023-05-10T14:47:16.188Z,96591.16
2023-05-10T14:49:42.560Z,96582.22
2023-05-10T14:52:10.700Z,96591.28
2023-05-10T14:54:37.270Z,96592.06
2023-05-10T14:57:03.725Z,96580.50
2023-05-10T14:59:30.104Z,96566.34
2023-05-10T15:01:57.019Z,96594.53
2023-05-10T15:04:24.413Z,96583.06
2023-05-10T15:06:51.965Z,96600.56
2023-05-10T15:09:18.544Z,96582.75
2023-05-10T15:11:44.893Z,96587.69
2023-05-10T15:14:11.278Z,96590.88
2023-05-10T15:16:37.765Z,96554.56
2023-05-10T15:19:04.386Z,96583.69
2023-05-10T15:21:31.019Z,96603.59
2023-05-10T15:23:57.590Z,96601.88
2023-05-10T15:26:24.199Z,96599.94
2023-05-10T15:28:50.651Z,96622.06
2023-05-10T15:31:17.297Z,96589.13
2023-05-10T15:33:43.864Z,96603.78
2023-05-10T15:36:10.233Z,96602.19
2023-05-10T15:38:36.713Z,96622.88
2023-05-10T15:41:03.129Z,96611.41
2023-05-10T15:43:29.482Z,96602.16
2023-05-10T15:45:55.950Z,96618.41
2023-05-10T15:48:22.425Z,96627.81
2023-05-10T15:50:48.973Z,96602.16
2023-05-10T15:53:15.450Z,96594.03
2023-05-10T15:55:41.909Z,96619.66
2023-05-10T15:58:08.402Z,96627.97
2023-05-10T16:00:35.035Z,96606.66
2023-05-10T16:03:01.684Z,96607.91
2023-05-10T16:05:28.375Z,96622.53
2023-05-10T16:07:54.952Z,96636.88
2023-05-10T16:10:21.377Z,96606.31
2023-05-10T16:12:47.908Z,96640.56
2023-05-10T16:15:14.409Z,96635.63
2023-05-10T16:17:40.947Z,96648.69
2023-05-10T16:20:07.784Z,96640.25
2023-05-10T16:22:34.329Z,96635.28
2023-05-10T16:25:00.757Z,96644.53
2023-05-10T16:27:27.295Z,96653.28
2023-05-10T16:29:53.934Z,96641.34
2023-05-10T16:32:20.427Z,96652.34
2023-05-10T16:34:46.858Z,96627.34
2023-05-10T16:37:13.456Z,96650.28
2023-05-10T16:39:39.982Z,96641.19
2023-05-10T16:42:06.395Z,96632.75
2023-05-10T16:44:32.829Z,96638.94
2023-05-10T16:46:59.535Z,96614.28
2023-05-10T16:49:26.327Z,96641.66
2023-05-10T16:51:52.974Z,96642.16
2023-05-10T16:54:19.448Z,96646.91
2023-05-10T16:56:45.925Z,96646.94
2023-05-10T16:59:12.424Z,96644.22
2023-05-10T17:01:38.806Z,96652.97
2023-05-10T17:04:05.267Z,96650.59
2023-05-10T17:06:31.719Z,96669.53
2023-05-10T17:08:58.102Z,96651.53
2023-05-10T17:11:24.574Z,96678.91
2023-05-10T17:13:51.095Z,96656.94
2023-05-10T17:16:17.685Z,96656.16
2023-05-10T17:18:44.273Z,96639.94
2023-05-10T17:21:10.804Z,96662.53
2023-05-10T17:23:37.272Z,96666.84
2023-05-10T17:26:04.237Z,96642.16
2023-05-10T17:28:30.709Z,96651.69
2023-05-10T17:30:57.328Z,96647.34
2023-05-10T17:33:23.759Z,96663.78
2023-05-10T17:35:50.232Z,96645.75
2023-05-10T17:38:16.717Z,96633.81
2023-05-10T17:40:43.098Z,96640.97
2023-05-10T17:43:09.598Z,96661.66
2023-05-10T17:45:36.108Z,96655.91
2023-05-10T17:48:03.083Z,96647.97
2023-05-10T17:50:29.625Z,96644.75
2023-05-10T17:52:56.000Z,96665.59
2023-05-10T17:55:22.455Z,96662.91
2023-05-10T17:57:51.132Z,96656.53
2023-05-10T18:00:18.598Z,96681.34
2023-05-10T18:02:45.515Z,96664.28
2023-05-10T18:05:12.127Z,96667.63
2023-05-10T18:07:38.658Z,96676.00
2023-05-10T18:10:05.236Z,96674.16
2023-05-10T18:12:31.716Z,96692.22
2023-05-10T18:14:58.333Z,96695.06
2023-05-10T18:17:24.732Z,96660.69
2023-05-10T18:19:51.335Z,96669.47
2023-05-10T18:22:17.788Z,96701.41
2023-05-10T18:24:44.255Z,96674.59
2023-05-10T18:27:10.748Z,96680.34
2023-05-10T18:29:37.226Z,96681.94
2023-05-10T18:32:03.705Z,96694.16
2023-05-10T18:34:30.400Z,96695.09
2023-05-10T18:36:56.885Z,96737.13
2023-05-10T18:39:23.633Z,96666.97
2023-05-10T18:41:50.274Z,96698.56
2023-05-10T18:44:16.749Z,96711.47
2023-05-10T18:46:43.206Z,96711.94
2023-05-10T18:49:10.013Z,96697.91
2023-05-10T18:51:36.557Z,96695.47
2023-05-10T18:54:03.206Z,96691.78
2023-05-10T18:56:29.938Z,96721.38
2023-05-10T18:58:56.466Z,96718.72
2023-05-10T19:01:22.969Z,96719.22
2023-05-10T19:03:49.643Z,96702.94
2023-05-10T19:06:16.042Z,96728.75
2023-05-10T19:08:42.508Z,96724.94
2023-05-10T19:11:09.096Z,96728.78
2023-05-10T19:13:35.556Z,96749.41
2023-05-10T19:16:05.606Z,96744.81
2023-05-10T19:18:33.275Z,96725.19
2023-05-10T19:21:00.502Z,96719.78
2023-05-10T19:23:29.109Z,96709.41
2023-05-10T19:25:55.653Z,96727.34
2023-05-10T19:28:22.162Z,96737.44
2023-05-10T19:30:48.702Z,96743.81
2023-05-10T19:33:15.289Z,96744.63
2023-05-10T19:35:41.766Z,96761.81
2023-05-10T19:38:08.301Z,96734.19
2023-05-10T19:40:34.778Z,96748.25
2023-05-10T19:43:01.234Z,96761.75
2023-05-10T19:45:27.737Z,96732.97
2023-05-10T19:47:54.210Z,96742.53
2023-05-10T19:50:20.698Z,96742.66
2023-05-10T19:52:47.386Z,96748.94
2023-05-10T19:55:15.271Z,96746.66
2023-05-10T19:57:41.867Z,96760.53
2023-05-10T20:00:08.615Z,96730.84
2023-05-10T20:02:35.174Z,96756.53
2023-05-10T20:05:01.657Z,96738.75
2023-05-10T20:07:28.157Z,96728.03
2023-05-10T20:09:54.703Z,96751.63
2023-05-10T20:12:21.278Z,96748.75
2023-05-10T20:14:47.758Z,96768.06
2023-05-10T20:17:14.182Z,96759.38
2023-05-10T20:19:40.724Z,96726.00
2023-05-10T20:22:07.218Z,96754.66
2023-05-10T20:24:33.766Z,96774.25
2023-05-10T20:27:00.254Z,96725.69
2023-05-10T20:29:26.642Z,96740.88
2023-05-10T20:31:53.144Z,96749.19
2023-05-10T20:34:19.588Z,96733.59
2023-05-10T20:36:46.080Z,96760.06
2023-05-10T20:39:12.573Z,96751.34
2023-05-10T20:41:39.215Z,96717.06
2023-05-10T20:44:05.654Z,96768.66
2023-05-10T20:46:32.550Z,96742.22
2023-05-10T20:48:59.007Z,96742.22
2023-05-10T20:51:25.590Z,96740.53
2023-05-10T20:53:52.022Z,96747.69
2023-05-10T20:56:18.453Z,96742.88
2023-05-10T20:58:44.925Z,96741.19
2023-05-10T21:01:11.511Z,96748.09
2023-05-10T21:03:38.015Z,96728.94
2023-05-10T21:06:04.410Z,96711.50
2023-05-10T21:08:30.821Z,96746.19
2023-05-10T21:10:57.227Z,96720.03
2023-05-10T21:13:23.706Z,96733.91
2023-05-10T21:15:50.226Z,96696.22
2023-05-10T21:18:16.708Z,96743.69
2023-05-10T21:20:43.255Z,96757.56
2023-05-10T21:23:10.073Z,96718.00
2023-05-10T21:25:36.467Z,96739.72
2023-05-10T21:28:02.942Z,96726.22
2023-05-10T21:30:29.435Z,96739.72
2023-05-10T21:32:55.965Z,96739.91
2023-05-10T21:35:22.510Z,96737.31
2023-05-10T21:37:49.035Z,96701.94
2023-05-10T21:40:15.667Z,96728.94
2023-05-10T21:42:42.165Z,96757.91
2023-05-10T21:45:08.753Z,96733.59
2023-05-10T21:47:35.282Z,96723.41
2023-05-10T21:50:01.823Z,96728.94
2023-05-10T21:52:28.271Z,96726.84
2023-05-10T21:54:54.673Z,96732.97
2023-05-10T21:57:21.038Z,96749.81
2023-05-10T21:59:47.488Z,96727.06
2023-05-10T22:02:14.026Z,96739.03
2023-05-10T22:04:40.499Z,96743.94
2023-05-10T22:07:07.162Z,96754.41
2023-05-10T22:09:33.674Z,96730.13
2023-05-10T22:12:00.186Z,96720.25
2023-05-10T22:14:26.683Z,96772.19
2023-05-10T22:16:53.123Z,96726.22
2023-05-10T22:19:19.544Z,96768.09
2023-05-10T22:21:46.099Z,96707.19
2023-05-10T22:24:12.609Z,96739.84
2023-05-10T22:26:39.033Z,96740.16
2023-05-10T22:29:05.493Z,96747.53
2023-05-10T22:31:31.924Z,96755.94
2023-05-10T22:33:58.423Z,96751.94
2023-05-10T22:36:24.905Z,96724.63
2023-05-10T22:38:51.324Z,96761.41
2023-05-10T22:41:18.006Z,96747.63
2023-05-10T22:43:44.514Z,96734.84
2023-05-10T22:46:10.973Z,96734.63
2023-05-10T22:48:37.500Z,96743.44
2023-05-10T22:51:04.030Z,96735.53
2023-05-10T22:53:30.460Z,96741.84
2023-05-10T22:55:56.976Z,96733.38
2023-05-10T22:58:23.493Z,96728.75
2023-05-10T23:00:49.909Z,96740.03
2023-05-10T23:03:16.429Z,96708.69
2023-05-10T23:05:42.905Z,96746.47
2023-05-10T23:08:09.289Z,96715.59
2023-05-10T23:10:35.674Z,96718.97
2023-05-10T23:13:02.363Z,96698.59
2023-05-10T23:15:28.798Z,96733.47
2023-05-10T23:17:55.390Z,96737.78
2023-05-10T23:20:22.055Z,96726.88
2023-05-10T23:22:48.923Z,96738.84
2023-05-10T23:25:15.522Z,96728.97
2023-05-10T23:27:42.124Z,96743.16
2023-05-10T23:30:11.487Z,96699.63
2023-05-10T23:32:37.959Z,96718.97
2023-05-10T23:35:04.681Z,96742.78
2023-05-10T23:37:31.063Z,96727.97
2023-05-10T23:39:57.435Z,96747.78
2023-05-10T23:42:23.870Z,96724.69
2023-05-10T23:44:50.787Z,96714.00
2023-05-10T23:47:17.141Z,96728.97
2023-05-10T23:49:43.555Z,96746.56
2023-05-10T23:52:10.030Z,96730.38
2023-05-10T23:54:36.553Z,96709.63
2023-05-10T23:57:03.009Z,96724.38
2023-05-10T23:59:29.557Z,96727.56
